createdAt,value
2018-11-20T00:00:59.893Z,2.72
2018-11-20T00:03:47.581Z,4.75
2018-11-20T00:06:37.973Z,3.22
2018-11-20T00:09:39.669Z,5.00
2018-11-20T00:12:16.630Z,4.90
2018-11-20T00:15:01.315Z,2.67
2018-11-20T00:17:56.401Z,3.55
2018-11-20T00:20:40.443Z,3.60
2018-11-20T00:23:35.213Z,3.17
2018-11-20T00:26:23.220Z,3.77
2018-11-20T00:29:21.173Z,3.08
2018-11-20T00:32:12.951Z,3.08
2018-11-20T00:35:00.524Z,3.10
2018-11-20T00:37:48.220Z,4.47
2018-11-20T00:40:43.144Z,3.20
2018-11-20T00:43:25.732Z,4.25
2018-11-20T00:46:08.904Z,4.08
2018-11-20T00:48:52.543Z,6.12
2018-11-20T00:51:44.474Z,2.72
2018-11-20T00:54:39.553Z,4.58
2018-11-20T00:57:27.140Z,3.85
2018-11-20T01:00:19.002Z,4.53
2018-11-20T01:03:10.612Z,3.92
2018-11-20T01:06:11.686Z,5.45
2018-11-20T01:09:19.144Z,6.70
2018-11-20T01:11:56.475Z,6.33
2018-11-20T01:14:46.081Z,3.10
2018-11-20T01:17:27.718Z,5.03
2018-11-20T01:20:31.996Z,4.42
2018-11-20T01:23:26.705Z,5.08
2018-11-20T01:26:18.798Z,3.80
2018-11-20T01:29:16.856Z,5.40
2018-11-20T01:32:05.993Z,5.05
2018-11-20T01:34:56.918Z,3.75
2018-11-20T01:37:34.952Z,4.95
2018-11-20T01:40:19.413Z,4.08
2018-11-20T01:43:17.277Z,5.17
2018-11-20T01:46:08.971Z,4.33
2018-11-20T01:48:58.100Z,8.55
2018-11-20T01:51:45.677Z,3.40
2018-11-20T01:54:33.197Z,6.20
2018-11-20T01:57:13.594Z,3.62
2018-11-20T02:00:01.503Z,3.52
2018-11-20T02:03:02.594Z,4.17
2018-11-20T02:05:46.716Z,5.97
2018-11-20T02:08:35.754Z,6.20
2018-11-20T02:11:24.882Z,5.90
2018-11-20T02:14:31.644Z,3.83
2018-11-20T02:17:25.220Z,4.62
2018-11-20T02:20:13.235Z,3.17
2018-11-20T02:23:00.734Z,3.40
2018-11-20T02:25:41.840Z,4.25
2018-11-20T02:28:30.918Z,3.62
2018-11-20T02:31:12.148Z,4.67
2018-11-20T02:33:59.995Z,4.20
2018-11-20T02:36:51.958Z,4.40
2018-11-20T02:39:46.758Z,4.35
2018-11-20T02:42:34.507Z,4.92
2018-11-20T02:45:32.449Z,5.42
2018-11-20T02:48:28.402Z,4.30
2018-11-20T02:51:20.999Z,3.05
2018-11-20T02:54:22.044Z,3.50
2018-11-20T02:57:09.965Z,4.00
2018-11-20T02:59:57.577Z,4.40
2018-11-20T03:02:46.659Z,4.35
2018-11-20T03:05:44.544Z,4.40
2018-11-20T03:08:30.762Z,5.12
2018-11-20T03:11:19.840Z,5.70
2018-11-20T03:14:06.922Z,5.45
2018-11-20T03:16:54.825Z,4.28
2018-11-20T03:19:42.620Z,3.87
2018-11-20T03:22:40.821Z,4.87
2018-11-20T03:25:55.743Z,5.25
2018-11-20T03:29:00.785Z,6.72
2018-11-20T03:31:44.233Z,4.85
2018-11-20T03:34:39.205Z,4.35
2018-11-20T03:37:28.303Z,4.50
2018-11-20T03:40:20.235Z,2.58
2018-11-20T03:43:01.411Z,4.60
2018-11-20T03:45:40.235Z,5.67
2018-11-20T03:48:47.432Z,5.08
2018-11-20T03:51:25.305Z,4.28
2018-11-20T03:54:13.091Z,3.90
2018-11-20T03:57:00.981Z,3.45
2018-11-20T03:59:48.725Z,4.65
2018-11-20T04:02:37.125Z,3.62
2018-11-20T04:05:24.706Z,3.72
2018-11-20T04:08:16.541Z,5.22
2018-11-20T04:11:04.325Z,3.27
2018-11-20T04:13:53.364Z,4.70
2018-11-20T04:16:42.425Z,5.22
2018-11-20T04:19:30.133Z,5.78
2018-11-20T04:22:18.163Z,3.35
2018-11-20T04:25:09.374Z,3.25
2018-11-20T04:27:57.305Z,5.85
2018-11-20T04:31:25.393Z,7.05
2018-11-20T04:34:12.912Z,4.95
2018-11-20T04:37:10.941Z,4.83
2018-11-20T04:39:48.668Z,4.95
2018-11-20T04:42:46.930Z,2.90
2018-11-20T04:45:37.475Z,3.87
2018-11-20T04:48:32.689Z,3.25
2018-11-20T04:51:24.303Z,3.40
2018-11-20T04:54:16.679Z,3.85
2018-11-20T04:57:21.069Z,3.83
2018-11-20T05:00:09.133Z,5.37
2018-11-20T05:02:48.953Z,3.25
2018-11-20T05:05:39.453Z,3.52
2018-11-20T05:08:26.811Z,3.35
2018-11-20T05:11:25.053Z,3.55
2018-11-20T05:14:14.731Z,3.35
2018-11-20T05:17:05.027Z,5.55
2018-11-20T05:20:00.035Z,4.37
2018-11-20T05:22:48.122Z,4.80
2018-11-20T05:25:36.616Z,2.58
2018-11-20T05:28:34.361Z,5.17
2018-11-20T05:31:32.369Z,3.33
2018-11-20T05:34:26.651Z,4.42
2018-11-20T05:37:21.592Z,3.77
2018-11-20T05:40:11.961Z,4.50
2018-11-20T05:42:56.876Z,5.15
2018-11-20T05:46:01.219Z,3.02
2018-11-20T05:48:56.401Z,4.90
2018-11-20T05:51:44.477Z,4.12
2018-11-20T05:54:32.047Z,5.17
2018-11-20T05:57:15.620Z,3.42
2018-11-20T06:00:13.749Z,4.90
2018-11-20T06:02:54.965Z,4.35
2018-11-20T06:05:59.136Z,4.95
2018-11-20T06:08:46.751Z,6.17
2018-11-20T06:11:36.933Z,3.42
2018-11-20T06:14:24.826Z,6.12
2018-11-20T06:17:12.509Z,5.90
2018-11-20T06:19:52.223Z,5.58
2018-11-20T06:22:50.317Z,4.65
2018-11-20T06:25:42.303Z,7.53
2018-11-20T06:28:40.637Z,4.67
2018-11-20T06:31:28.268Z,4.15
2018-11-20T06:34:29.553Z,4.17
2018-11-20T06:37:17.223Z,4.55
2018-11-20T06:40:04.885Z,3.45
2018-11-20T06:42:56.621Z,3.00
2018-11-20T06:45:37.534Z,4.97
2018-11-20T06:48:29.185Z,4.17
2018-11-20T06:51:17.961Z,5.58
2018-11-20T06:54:05.653Z,5.08
2018-11-20T06:57:06.562Z,6.28
2018-11-20T06:59:53.612Z,4.00
2018-11-20T07:02:51.322Z,4.35
2018-11-20T07:05:55.560Z,5.50
2018-11-20T07:08:43.362Z,3.77
2018-11-20T07:11:41.003Z,5.87
2018-11-20T07:14:31.695Z,5.10
2018-11-20T07:17:44.376Z,6.37
2018-11-20T07:20:27.789Z,4.00
2018-11-20T07:23:16.821Z,3.62
2018-11-20T07:26:14.755Z,7.25
2018-11-20T07:29:13.127Z,3.20
2018-11-20T07:32:03.157Z,5.97
2018-11-20T07:34:43.379Z,3.05
2018-11-20T07:37:31.241Z,4.50
2018-11-20T07:40:59.020Z,4.95
2018-11-20T07:43:59.987Z,3.25
2018-11-20T07:47:03.241Z,4.10
2018-11-20T07:49:50.327Z,5.90
2018-11-20T07:52:41.556Z,4.58
2018-11-20T07:55:36.132Z,5.20
2018-11-20T07:58:42.314Z,4.70
2018-11-20T08:01:30.593Z,4.53
2018-11-20T08:04:23.595Z,3.72
2018-11-20T08:07:24.016Z,4.97
2018-11-20T08:10:17.967Z,5.28
2018-11-20T08:13:11.895Z,3.40
2018-11-20T08:16:06.483Z,3.37
2018-11-20T08:19:09.952Z,3.98
2018-11-20T08:22:03.803Z,3.92
2018-11-20T08:25:01.045Z,4.47
2018-11-20T08:27:52.242Z,4.35
2018-11-20T08:30:39.483Z,4.85
2018-11-20T08:33:33.824Z,3.85
2018-11-20T08:36:31.142Z,3.52
2018-11-20T08:39:19.363Z,3.92
2018-11-20T08:42:22.582Z,3.70
2018-11-20T08:45:09.535Z,3.33
2018-11-20T08:48:16.199Z,4.45
2018-11-20T08:51:13.533Z,4.15
2018-11-20T08:54:08.009Z,3.87
2018-11-20T08:56:55.237Z,5.35
2018-11-20T08:59:49.277Z,4.20
2018-11-20T09:02:44.128Z,3.30
2018-11-20T09:05:35.208Z,3.87
2018-11-20T09:08:24.870Z,5.28
2018-11-20T09:11:11.713Z,3.10
2018-11-20T09:14:05.838Z,4.97
2018-11-20T09:16:59.925Z,2.70
2018-11-20T09:19:54.049Z,3.62
2018-11-20T09:22:42.285Z,3.90
2018-11-20T09:25:44.379Z,3.20
2018-11-20T09:28:35.204Z,3.70
2018-11-20T09:31:23.713Z,3.67
2018-11-20T09:34:15.136Z,4.15
2018-11-20T09:37:05.282Z,3.80
2018-11-20T09:39:59.683Z,6.00
2018-11-20T09:42:48.397Z,2.00
2018-11-20T09:46:06.057Z,3.22
2018-11-20T09:48:54.315Z,5.50
2018-11-20T09:51:45.327Z,3.67
2018-11-20T09:54:47.041Z,4.22
2018-11-20T09:57:28.563Z,3.40
2018-11-20T10:00:15.305Z,3.17
2018-11-20T10:03:06.310Z,4.47
2018-11-20T10:05:53.300Z,4.58
2018-11-20T10:08:44.606Z,4.10
2018-11-20T10:11:32.667Z,4.35
2018-11-20T10:14:27.088Z,4.30
2018-11-20T10:17:13.940Z,5.08
2018-11-20T10:19:54.621Z,3.33
2018-11-20T10:22:51.656Z,3.00
2018-11-20T10:25:43.316Z,3.27
2018-11-20T10:28:30.063Z,4.03
2018-11-20T10:31:17.025Z,4.97
2018-11-20T10:34:08.561Z,6.45
2018-11-20T10:36:55.594Z,3.27
2018-11-20T10:39:56.126Z,2.65
2018-11-20T10:42:35.185Z,4.62
2018-11-20T10:45:15.807Z,4.30
2018-11-20T10:48:02.981Z,5.85
2018-11-20T10:50:50.042Z,2.30
2018-11-20T10:53:29.634Z,3.85
2018-11-20T10:56:11.560Z,4.60
2018-11-20T10:59:14.776Z,3.75
2018-11-20T11:02:01.762Z,6.35
2018-11-20T11:04:49.081Z,5.67
2018-11-20T11:07:52.350Z,4.15
2018-11-20T11:10:42.987Z,4.20
2018-11-20T11:13:41.093Z,5.55
2018-11-20T11:16:27.844Z,4.72
2018-11-20T11:19:28.430Z,5.17
2018-11-20T11:22:06.993Z,4.25
2018-11-20T11:25:07.027Z,4.85
2018-11-20T11:27:50.447Z,4.80
2018-11-20T11:30:44.607Z,5.30
2018-11-20T11:33:38.424Z,5.85
2018-11-20T11:36:25.662Z,3.90
2018-11-20T11:39:19.912Z,3.77
2018-11-20T11:41:57.348Z,6.65
2018-11-20T11:44:51.279Z,4.95
2018-11-20T11:47:42.148Z,4.75
2018-11-20T11:50:30.396Z,6.67
2018-11-20T11:53:30.677Z,3.85
2018-11-20T11:56:27.956Z,6.67
2018-11-20T11:59:34.252Z,5.00
2018-11-20T12:05:07.522Z,6.58
2018-11-20T12:08:00.181Z,7.28
2018-11-20T12:10:51.463Z,6.12
2018-11-20T12:13:38.507Z,4.83
2018-11-20T12:16:36.472Z,6.22
2018-11-20T12:19:23.149Z,6.83
2018-11-20T12:22:11.418Z,5.75
2018-11-20T12:24:58.346Z,5.40
2018-11-20T12:27:45.471Z,7.97
2018-11-20T12:30:23.067Z,9.83
2018-11-20T12:33:12.212Z,6.50
2018-11-20T12:35:59.321Z,7.28
2018-11-20T12:38:55.486Z,6.55
2018-11-20T12:41:49.852Z,8.18
2018-11-20T12:44:33.781Z,7.70
2018-11-20T12:47:20.761Z,8.53
2018-11-20T12:50:08.597Z,7.20
2018-11-20T12:52:54.681Z,8.08
2018-11-20T12:55:50.244Z,7.45
2018-11-20T12:58:42.093Z,7.92
2018-11-20T13:01:30.762Z,8.75
2018-11-20T13:04:19.897Z,7.83
2018-11-20T13:07:06.782Z,7.53
2018-11-20T13:10:04.040Z,7.60
2018-11-20T13:13:04.321Z,11.18
2018-11-20T13:15:43.515Z,11.60
2018-11-20T13:18:44.028Z,9.35
2018-11-20T13:21:31.354Z,10.45
2018-11-20T13:24:22.644Z,10.72
2018-11-20T13:27:23.184Z,10.95
2018-11-20T13:30:10.035Z,11.25
2018-11-20T13:32:57.235Z,8.75
2018-11-20T13:35:44.009Z,12.13
2018-11-20T13:38:33.328Z,9.83
2018-11-20T13:41:39.851Z,10.95
2018-11-20T13:44:26.637Z,13.70
2018-11-20T13:47:26.990Z,13.13
2018-11-20T13:50:20.916Z,11.80
2018-11-20T13:53:24.262Z,11.10
2018-11-20T13:56:15.901Z,12.60
2018-11-20T13:59:02.611Z,11.25
2018-11-20T14:01:45.287Z,9.28
2018-11-20T14:04:48.724Z,12.93
2018-11-20T14:07:42.974Z,8.75
2018-11-20T14:10:40.449Z,11.08
2018-11-20T14:13:27.351Z,9.53
2018-11-20T14:16:21.673Z,15.95
2018-11-20T14:19:18.337Z,12.33
2018-11-20T14:21:59.765Z,11.28
2018-11-20T14:24:48.005Z,14.05
2018-11-20T14:27:49.070Z,14.05
2018-11-20T14:30:54.876Z,8.63
2018-11-20T14:33:42.057Z,8.58
2018-11-20T14:36:29.380Z,10.55
2018-11-20T14:39:36.034Z,7.92
2018-11-20T14:42:30.512Z,9.98
2018-11-20T14:45:09.611Z,10.75
2018-11-20T14:48:04.722Z,10.63
2018-11-20T14:51:12.020Z,11.53
2018-11-20T14:53:53.282Z,10.95
2018-11-20T14:56:40.828Z,12.82
2018-11-20T14:59:37.765Z,15.85
2018-11-20T15:02:35.220Z,10.03
2018-11-20T15:05:38.726Z,7.80
2018-11-20T15:08:32.969Z,11.65
2018-11-20T15:11:25.390Z,10.05
2018-11-20T15:14:12.541Z,7.35
2018-11-20T15:16:59.291Z,8.20
2018-11-20T15:19:48.363Z,12.90
2018-11-20T15:22:40.916Z,9.45
2018-11-20T15:25:27.948Z,11.03
2018-11-20T15:28:16.239Z,8.33
2018-11-20T15:31:03.199Z,9.68
2018-11-20T15:33:51.508Z,9.05
2018-11-20T15:36:39.794Z,6.33
2018-11-20T15:39:33.913Z,6.95
2018-11-20T15:42:23.150Z,10.88
2018-11-20T15:45:20.194Z,9.85
2018-11-20T15:48:12.998Z,8.80
2018-11-20T15:50:50.870Z,9.95
2018-11-20T15:53:39.270Z,10.85
2018-11-20T15:56:26.404Z,10.60
2018-11-20T15:59:14.570Z,13.08
2018-11-20T16:02:02.884Z,9.80
2018-11-20T16:05:00.145Z,8.00
2018-11-20T16:08:03.498Z,11.30
2018-11-20T16:11:03.638Z,8.40
2018-11-20T16:13:51.890Z,9.55
2018-11-20T16:16:43.043Z,9.60
2018-11-20T16:19:25.334Z,8.65
2018-11-20T16:22:19.858Z,12.25
2018-11-20T16:25:10.916Z,8.25
2018-11-20T16:28:01.936Z,8.15
2018-11-20T16:30:39.863Z,9.13
2018-11-20T16:33:28.098Z,10.38
2018-11-20T16:36:16.525Z,11.85
2018-11-20T16:39:13.571Z,7.80
2018-11-20T16:42:20.079Z,10.00
2018-11-20T16:45:26.811Z,9.30
2018-11-20T16:48:13.350Z,13.40
2018-11-20T16:51:19.956Z,10.28
2018-11-20T16:54:16.646Z,9.50
2018-11-20T16:57:03.341Z,7.12
2018-11-20T16:59:50.372Z,11.10
2018-11-20T17:02:50.518Z,10.05
2018-11-20T17:05:56.875Z,10.55
2018-11-20T17:09:00.960Z,9.90
2018-11-20T17:11:47.458Z,7.42
2018-11-20T17:14:41.908Z,9.73
2018-11-20T17:17:29.114Z,8.38
2018-11-20T17:20:29.579Z,8.50
2018-11-20T17:23:17.880Z,8.38
2018-11-20T17:26:18.080Z,10.00
2018-11-20T17:29:04.842Z,9.38
2018-11-20T17:31:56.086Z,9.88
2018-11-20T17:34:51.567Z,7.62
2018-11-20T17:37:38.358Z,12.10
2018-11-20T17:40:26.948Z,9.23
2018-11-20T17:43:14.085Z,8.53
2018-11-20T17:45:59.959Z,10.53
2018-11-20T17:48:47.028Z,9.18
2018-11-20T17:51:34.959Z,8.58
2018-11-20T17:54:22.891Z,8.38
2018-11-20T17:57:10.076Z,10.03
2018-11-20T17:59:54.578Z,11.68
2018-11-20T18:02:41.638Z,11.25
2018-11-20T18:05:32.890Z,9.80
2018-11-20T18:08:33.480Z,10.05
2018-11-20T18:11:24.467Z,11.00
2018-11-20T18:14:15.962Z,9.75
2018-11-20T18:17:07.233Z,8.83
2018-11-20T18:19:49.417Z,9.78
2018-11-20T18:22:43.074Z,7.80
2018-11-20T18:25:29.970Z,9.13
2018-11-20T18:28:24.273Z,10.25
2018-11-20T18:31:04.764Z,9.95
2018-11-20T18:33:55.914Z,11.30
2018-11-20T18:36:47.214Z,9.05
2018-11-20T18:39:28.551Z,8.58
2018-11-20T18:42:25.858Z,7.85
2018-11-20T18:45:17.052Z,7.17
2018-11-20T18:48:08.085Z,11.38
2018-11-20T18:50:55.314Z,11.60
2018-11-20T18:53:59.209Z,7.45
2018-11-20T18:56:47.467Z,10.28
2018-11-20T18:59:48.343Z,11.63
2018-11-20T19:02:48.709Z,9.73
2018-11-20T19:05:35.566Z,8.78
2018-11-20T19:08:31.555Z,9.08
2018-11-20T19:11:18.628Z,8.15
2018-11-20T19:14:05.974Z,9.98
2018-11-20T19:16:53.049Z,8.50
2018-11-20T19:19:53.355Z,13.78
2018-11-20T19:22:47.754Z,10.85
2018-11-20T19:25:39.110Z,10.32
2018-11-20T19:28:17.436Z,9.30
2018-11-20T19:31:03.841Z,7.70
2018-11-20T19:33:51.527Z,11.57
2018-11-20T19:36:55.025Z,9.05
2018-11-20T19:40:01.152Z,8.55
2018-11-20T19:42:55.001Z,10.35
2018-11-20T19:45:41.751Z,8.85
2018-11-20T19:48:22.468Z,9.88
2018-11-20T19:51:28.819Z,11.30
2018-11-20T19:54:20.015Z,10.20
2018-11-20T19:57:17.278Z,11.33
2018-11-20T20:00:14.599Z,11.85
2018-11-20T20:03:14.844Z,12.45
2018-11-20T20:06:01.983Z,9.05
2018-11-20T20:08:49.030Z,9.93
2018-11-20T20:11:46.638Z,7.92
2018-11-20T20:14:35.971Z,8.28
2018-11-20T20:17:39.681Z,12.18
2018-11-20T20:20:31.322Z,9.63
2018-11-20T20:23:19.747Z,10.18
2018-11-20T20:26:14.288Z,9.45
2018-11-20T20:29:01.680Z,11.28
2018-11-20T20:31:53.504Z,10.53
2018-11-20T20:34:47.557Z,8.98
2018-11-20T20:37:44.815Z,11.95
2018-11-20T20:40:48.335Z,10.70
2018-11-20T20:43:54.881Z,9.93
2018-11-20T20:46:33.657Z,12.58
2018-11-20T20:49:27.929Z,9.78
2018-11-20T20:52:15.296Z,10.23
2018-11-20T20:55:09.595Z,8.93
2018-11-20T20:57:49.101Z,12.50
2018-11-20T21:00:40.393Z,11.15
2018-11-20T21:03:31.474Z,9.85
2018-11-20T21:06:13.145Z,10.58
2018-11-20T21:09:04.204Z,11.68
2018-11-20T21:11:51.309Z,12.33
2018-11-20T21:14:42.457Z,8.55
2018-11-20T21:17:29.627Z,9.75
2018-11-20T21:20:28.742Z,11.63
2018-11-20T21:23:15.984Z,9.85
2018-11-20T21:26:05.422Z,13.68
2018-11-20T21:28:52.597Z,10.08
2018-11-20T21:31:39.208Z,10.80
2018-11-20T21:34:42.784Z,9.85
2018-11-20T21:37:29.925Z,11.93
2018-11-20T21:40:30.720Z,11.03
2018-11-20T21:43:17.782Z,10.90
2018-11-20T21:45:58.638Z,13.13
2018-11-20T21:48:49.829Z,13.50
2018-11-20T21:51:40.951Z,10.23
2018-11-20T21:54:28.703Z,9.98
2018-11-20T21:57:11.170Z,14.73
2018-11-20T22:00:06.342Z,10.85
2018-11-20T22:03:03.209Z,9.98
2018-11-20T22:05:50.259Z,10.18
2018-11-20T22:08:37.327Z,11.12
2018-11-20T22:11:36.177Z,9.93
2018-11-20T22:14:27.409Z,8.15
2018-11-20T22:17:12.448Z,9.10
2018-11-20T22:20:00.766Z,11.88
2018-11-20T22:22:43.713Z,12.13
2018-11-20T22:25:43.358Z,13.03
2018-11-20T22:28:31.608Z,12.20
2018-11-20T22:31:19.879Z,15.63
2018-11-20T22:34:13.858Z,12.00
2018-11-20T22:37:00.981Z,13.08
2018-11-20T22:40:01.483Z,9.68
2018-11-20T22:42:52.495Z,12.65
2018-11-20T22:45:55.651Z,11.28
2018-11-20T22:48:52.943Z,12.70
2018-11-20T22:51:39.728Z,11.80
2018-11-20T22:54:40.149Z,12.45
2018-11-20T22:57:28.384Z,11.18
2018-11-20T23:00:08.801Z,9.73
2018-11-20T23:02:54.541Z,10.58
2018-11-20T23:05:50.457Z,8.55
2018-11-20T23:08:19.579Z,9.15
2018-11-20T23:10:48.746Z,13.08
2018-11-20T23:13:19.041Z,11.80
2018-11-20T23:15:48.183Z,11.22
2018-11-20T23:18:17.385Z,9.88
2018-11-20T23:20:46.918Z,13.70
2018-11-20T23:23:16.039Z,12.25
2018-11-20T23:25:45.134Z,9.30
2018-11-20T23:28:14.269Z,9.50
2018-11-20T23:30:43.376Z,10.55
2018-11-20T23:33:12.653Z,12.80
2018-11-20T23:35:41.755Z,9.65
2018-11-20T23:38:10.968Z,11.65
2018-11-20T23:40:40.030Z,12.73
2018-11-20T23:43:09.161Z,9.75
2018-11-20T23:45:39.156Z,10.75
2018-11-20T23:48:08.278Z,14.07
2018-11-20T23:50:37.443Z,9.85
2018-11-20T23:53:06.587Z,10.98
2018-11-20T23:55:35.668Z,9.15
2018-11-20T23:58:05.091Z,8.70
